createdAt,value
2023-05-13T12:58:46.751Z,40.69
2023-05-13T13:01:14.095Z,40.08
2023-05-13T13:03:41.193Z,40.13
2023-05-13T13:06:09.093Z,39.24
2023-05-13T13:08:37.299Z,38.92
2023-05-13T13:11:04.718Z,38.97
2023-05-13T13:13:32.541Z,38.59
2023-05-13T13:16:00.377Z,38.92
2023-05-13T13:18:27.527Z,38.35
2023-05-13T13:20:54.801Z,37.91
2023-05-13T13:23:22.201Z,37.93
2023-05-13T13:25:49.290Z,37.85
2023-05-13T13:28:16.429Z,37.29
2023-05-13T13:30:46.703Z,37.63
2023-05-13T13:33:16.077Z,37.28
2023-05-13T13:35:44.649Z,36.96
2023-05-13T13:38:11.759Z,36.71
2023-05-13T13:40:39.310Z,36.75
2023-05-13T13:43:07.811Z,36.20
2023-05-13T13:45:35.646Z,36.79
2023-05-13T13:48:03.183Z,36.58
2023-05-13T13:50:30.540Z,36.65
2023-05-13T13:52:57.649Z,36.68
2023-05-13T13:55:24.851Z,35.98
2023-05-13T13:57:52.259Z,36.39
2023-05-13T14:00:19.978Z,36.03
2023-05-13T14:02:47.429Z,36.01
2023-05-13T14:05:15.886Z,36.40
2023-05-13T14:07:42.867Z,36.53
2023-05-13T14:10:10.367Z,36.10
2023-05-13T14:12:38.484Z,36.64
2023-05-13T14:15:06.265Z,36.62
2023-05-13T14:17:33.870Z,36.23
2023-05-13T14:20:00.986Z,36.08
2023-05-13T14:22:28.079Z,35.81
2023-05-13T14:24:55.719Z,36.14
2023-05-13T14:27:24.593Z,35.62
2023-05-13T14:29:51.846Z,36.01
2023-05-13T14:32:18.809Z,36.07
2023-05-13T14:34:46.266Z,35.96
2023-05-13T14:37:13.321Z,35.58
2023-05-13T14:39:40.691Z,35.86
2023-05-13T14:42:07.706Z,35.74
2023-05-13T14:44:34.799Z,36.08
2023-05-13T14:47:01.907Z,35.78
2023-05-13T14:49:29.112Z,35.38
2023-05-13T14:51:56.150Z,35.21
2023-05-13T14:54:23.481Z,35.26
2023-05-13T14:56:51.736Z,34.89
2023-05-13T14:59:19.208Z,34.77
2023-05-13T15:01:46.385Z,34.69
2023-05-13T15:04:13.787Z,35.16
2023-05-13T15:06:40.762Z,34.28
2023-05-13T15:09:07.926Z,34.58
2023-05-13T15:11:54.995Z,34.54
2023-05-13T15:14:44.030Z,34.21
2023-05-13T15:17:30.990Z,34.25
2023-05-13T15:20:17.961Z,34.44
2023-05-13T15:23:05.058Z,33.48
2023-05-13T15:25:52.077Z,33.50
2023-05-13T15:28:39.146Z,33.49
2023-05-13T15:31:26.282Z,33.04
2023-05-13T15:34:14.008Z,33.71
2023-05-13T15:37:00.998Z,33.18
2023-05-13T15:39:48.233Z,33.15
2023-05-13T15:42:35.303Z,32.92
2023-05-13T15:45:22.316Z,33.03
2023-05-13T15:48:09.401Z,32.76
2023-05-13T15:50:56.458Z,32.70
2023-05-13T15:53:43.622Z,33.10
2023-05-13T15:56:30.547Z,33.02
2023-05-13T15:59:17.730Z,33.51
2023-05-13T16:02:05.026Z,33.23
2023-05-13T16:04:52.220Z,33.23
2023-05-13T16:07:39.231Z,33.48
2023-05-13T16:10:26.863Z,33.59
2023-05-13T16:13:13.985Z,33.45
2023-05-13T16:16:01.315Z,33.21
2023-05-13T16:18:48.373Z,33.01
2023-05-13T16:21:35.442Z,33.32
2023-05-13T16:24:22.399Z,33.38
2023-05-13T16:27:09.485Z,33.54
2023-05-13T16:29:56.350Z,33.02
2023-05-13T16:32:43.549Z,33.48
2023-05-13T16:35:30.545Z,33.63
2023-05-13T16:38:17.624Z,33.76
2023-05-13T16:41:04.806Z,33.67
2023-05-13T16:43:51.811Z,33.88
2023-05-13T16:46:38.837Z,34.00
2023-05-13T16:49:26.060Z,33.87
2023-05-13T16:52:13.092Z,34.38
2023-05-13T16:55:00.173Z,34.24
2023-05-13T16:57:47.081Z,34.22
2023-05-13T17:00:14.565Z,34.40
2023-05-13T17:02:42.815Z,34.55
2023-05-13T17:05:10.052Z,34.69
2023-05-13T17:07:37.142Z,34.90
2023-05-13T17:10:04.449Z,34.87
2023-05-13T17:12:31.549Z,34.77
2023-05-13T17:14:58.720Z,35.52
2023-05-13T17:17:25.693Z,35.15
2023-05-13T17:19:52.738Z,35.49
2023-05-13T17:22:19.706Z,35.23
2023-05-13T17:24:46.624Z,35.45
2023-05-13T17:27:13.788Z,35.83
2023-05-13T17:29:40.949Z,35.55
2023-05-13T17:32:08.046Z,36.26
2023-05-13T17:34:35.094Z,36.13
2023-05-13T17:37:02.027Z,36.18
2023-05-13T17:39:29.250Z,36.23
2023-05-13T17:41:56.374Z,36.41
2023-05-13T17:44:24.127Z,36.42
2023-05-13T17:46:51.247Z,36.15
2023-05-13T17:49:18.870Z,35.98
2023-05-13T17:51:46.166Z,36.37
2023-05-13T17:54:14.229Z,36.43
2023-05-13T17:56:41.442Z,35.75
2023-05-13T17:59:08.635Z,36.44
2023-05-13T18:01:35.914Z,36.36
2023-05-13T18:04:03.071Z,36.58
2023-05-13T18:06:30.299Z,36.60
2023-05-13T18:08:57.522Z,36.76
2023-05-13T18:11:24.632Z,37.01
2023-05-13T18:13:51.667Z,37.55
2023-05-13T18:16:19.639Z,37.35
2023-05-13T18:18:48.723Z,37.72
2023-05-13T18:21:16.146Z,37.70
2023-05-13T18:23:45.842Z,38.82
2023-05-13T18:26:12.785Z,38.67
2023-05-13T18:28:42.588Z,39.26
2023-05-13T18:31:09.624Z,39.66
2023-05-13T18:33:36.676Z,39.85
2023-05-13T18:36:04.035Z,39.32
2023-05-13T18:38:31.030Z,39.76
2023-05-13T18:41:03.085Z,39.81
2023-05-13T18:43:30.637Z,40.21
2023-05-13T18:45:58.274Z,40.29
2023-05-13T18:48:25.406Z,40.34
2023-05-13T18:50:53.176Z,40.50
2023-05-13T18:53:20.405Z,41.35
2023-05-13T18:55:47.446Z,41.53
2023-05-13T18:58:14.570Z,41.38
2023-05-13T19:00:41.937Z,42.01
2023-05-13T19:03:09.101Z,41.76
2023-05-13T19:05:36.261Z,42.20
2023-05-13T19:08:04.783Z,41.80
2023-05-13T19:10:36.829Z,42.77
2023-05-13T19:13:07.258Z,42.33
2023-05-13T19:15:34.524Z,42.73
2023-05-13T19:18:22.057Z,42.95
2023-05-13T19:21:09.133Z,43.24
2023-05-13T19:23:57.841Z,43.41
2023-05-13T19:26:45.119Z,43.13
2023-05-13T19:29:32.117Z,43.76
2023-05-13T19:32:19.207Z,43.61
2023-05-13T19:35:06.088Z,44.53
2023-05-13T19:37:53.188Z,44.57
2023-05-13T19:40:40.154Z,44.37
2023-05-13T19:43:27.242Z,44.46
2023-05-13T19:46:14.567Z,44.78
2023-05-13T19:49:01.696Z,44.51
2023-05-13T19:51:48.561Z,44.93
2023-05-13T19:54:35.899Z,44.91
2023-05-13T19:57:22.982Z,45.50
2023-05-13T20:00:10.141Z,45.81
2023-05-13T20:02:57.777Z,46.04
2023-05-13T20:05:44.850Z,45.87
2023-05-13T20:08:32.004Z,46.19
2023-05-13T20:11:19.557Z,46.76
2023-05-13T20:14:06.564Z,47.00
2023-05-13T20:16:53.651Z,47.20
2023-05-13T20:19:40.871Z,46.96
2023-05-13T20:22:28.046Z,47.32
2023-05-13T20:25:15.123Z,47.86
2023-05-13T20:28:02.247Z,47.59
2023-05-13T20:30:49.192Z,47.72
2023-05-13T20:33:36.272Z,48.05
2023-05-13T20:36:23.247Z,48.56
2023-05-13T20:39:10.424Z,48.68
2023-05-13T20:41:57.529Z,48.70
2023-05-13T20:44:44.792Z,48.78
2023-05-13T20:47:31.919Z,48.83
2023-05-13T20:50:18.958Z,48.84
2023-05-13T20:53:05.961Z,48.91
2023-05-13T20:55:53.079Z,49.74
2023-05-13T20:58:40.293Z,49.90
2023-05-13T21:01:27.334Z,49.81
2023-05-13T21:04:14.398Z,49.86
2023-05-13T21:07:01.525Z,49.98
2023-05-13T21:09:48.753Z,49.89
2023-05-13T21:12:35.717Z,50.17
2023-05-13T21:15:22.872Z,50.44
2023-05-13T21:18:09.974Z,50.14
2023-05-13T21:20:57.288Z,50.38
2023-05-13T21:23:44.201Z,50.91
2023-05-13T21:26:31.356Z,50.84
2023-05-13T21:29:19.080Z,50.97
2023-05-13T21:32:07.270Z,50.87
2023-05-13T21:34:54.177Z,51.17
2023-05-13T21:37:41.226Z,51.41
2023-05-13T21:40:48.218Z,51.06
2023-05-13T21:43:35.277Z,51.58
2023-05-13T21:46:22.390Z,51.37
2023-05-13T21:49:09.544Z,51.52
2023-05-13T21:51:56.693Z,51.99
2023-05-13T21:54:43.760Z,52.11
2023-05-13T21:57:30.793Z,52.42
2023-05-13T22:00:17.670Z,52.27
2023-05-13T22:03:09.986Z,52.61
2023-05-13T22:05:56.964Z,52.82
2023-05-13T22:08:44.128Z,53.16
2023-05-13T22:11:31.190Z,52.51
2023-05-13T22:14:19.172Z,53.14
2023-05-13T22:17:09.882Z,52.65
2023-05-13T22:19:57.872Z,53.64
2023-05-13T22:22:45.438Z,53.92
2023-05-13T22:25:32.539Z,53.53
2023-05-13T22:28:19.553Z,53.95
2023-05-13T22:31:06.838Z,54.29
2023-05-13T22:33:53.974Z,54.76
2023-05-13T22:36:43.176Z,54.77
2023-05-13T22:39:30.840Z,55.05
2023-05-13T22:42:18.282Z,55.52
2023-05-13T22:45:05.253Z,55.18
2023-05-13T22:47:52.407Z,55.58
2023-05-13T22:50:39.650Z,55.22
2023-05-13T22:53:26.663Z,55.15
2023-05-13T22:56:13.710Z,55.47
2023-05-13T22:59:00.652Z,55.36
2023-05-13T23:01:47.620Z,56.03
2023-05-13T23:04:34.783Z,57.02
2023-05-13T23:07:21.762Z,57.05
2023-05-13T23:10:08.677Z,57.00
2023-05-13T23:12:55.721Z,56.95
2023-05-13T23:15:42.782Z,57.37
2023-05-13T23:18:29.839Z,57.53
2023-05-13T23:21:16.776Z,57.06
2023-05-13T23:24:03.827Z,57.68
2023-05-13T23:26:51.417Z,58.05
2023-05-13T23:29:38.306Z,57.56
2023-05-13T23:32:25.783Z,58.35
2023-05-13T23:35:12.881Z,58.39
2023-05-13T23:38:00.129Z,58.36
2023-05-13T23:40:47.461Z,58.45
2023-05-13T23:43:34.610Z,58.08
2023-05-13T23:46:21.673Z,58.00
2023-05-13T23:49:08.705Z,59.30
2023-05-13T23:51:55.843Z,58.44
2023-05-13T23:54:42.822Z,58.89
2023-05-13T23:57:29.918Z,59.94
